createdAt,value
2018-12-15T00:00:30.741Z,2.4
2018-12-15T00:01:32.324Z,2.4
2018-12-15T00:02:33.729Z,2.4
2018-12-15T00:03:35.121Z,2.4
2018-12-15T00:04:36.638Z,2.4
2018-12-15T00:05:38.027Z,2.4
2018-12-15T00:06:39.420Z,2.4
2018-12-15T00:07:40.946Z,2.4
2018-12-15T00:08:42.469Z,2.4
2018-12-15T00:09:44.036Z,2.3
2018-12-15T00:10:45.449Z,2.4
2018-12-15T00:11:46.840Z,2.3
2018-12-15T00:12:48.364Z,2.4
2018-12-15T00:13:49.757Z,2.4
2018-12-15T00:14:51.166Z,2.5
2018-12-15T00:15:52.672Z,2.4
2018-12-15T00:16:54.066Z,2.4
2018-12-15T00:17:55.463Z,2.4
2018-12-15T00:18:57.063Z,2.4
2018-12-15T00:19:58.388Z,2.4
2018-12-15T00:21:00.169Z,2.4
2018-12-15T00:22:01.584Z,2.4
2018-12-15T00:23:03.571Z,2.4
2018-12-15T00:24:04.972Z,2.4
2018-12-15T00:25:06.456Z,2.4
2018-12-15T00:26:07.864Z,2.4
2018-12-15T00:27:09.329Z,2.5
2018-12-15T00:28:10.732Z,2.4
2018-12-15T00:29:12.213Z,2.4
2018-12-15T00:30:14.792Z,2.4
2018-12-15T00:31:15.100Z,2.5
2018-12-15T00:32:16.496Z,2.4
2018-12-15T00:33:17.982Z,2.4
2018-12-15T00:34:19.373Z,2.4
2018-12-15T00:35:20.866Z,2.3
2018-12-15T00:36:22.262Z,2.5
2018-12-15T00:37:23.739Z,2.5
2018-12-15T00:38:25.135Z,2.4
2018-12-15T00:39:26.619Z,2.5
2018-12-15T00:40:28.014Z,2.4
2018-12-15T00:41:29.497Z,2.5
2018-12-15T00:42:30.897Z,2.5
2018-12-15T00:43:32.285Z,2.4
2018-12-15T00:44:33.833Z,2.3
2018-12-15T00:45:35.243Z,2.4
2018-12-15T00:46:36.628Z,2.4
2018-12-15T00:47:38.141Z,2.4
2018-12-15T00:48:39.534Z,2.4
2018-12-15T00:49:40.931Z,2.4
2018-12-15T00:50:42.463Z,2.3
2018-12-15T00:51:43.858Z,2.4
2018-12-15T00:52:45.250Z,2.4
2018-12-15T00:53:46.784Z,2.4
2018-12-15T00:54:48.179Z,2.4
2018-12-15T00:55:49.685Z,2.4
2018-12-15T00:56:51.094Z,2.5
2018-12-15T00:57:52.548Z,2.5
2018-12-15T00:58:53.940Z,2.5
2018-12-15T00:59:55.475Z,2.4
2018-12-15T01:00:56.871Z,2.5
2018-12-15T01:01:58.307Z,2.4
2018-12-15T01:02:59.703Z,2.5
2018-12-15T01:04:01.093Z,2.5
2018-12-15T01:05:02.631Z,2.4
2018-12-15T01:06:04.025Z,2.4
2018-12-15T01:07:05.415Z,2.5
2018-12-15T01:08:06.812Z,2.4
2018-12-15T01:09:08.394Z,2.4
2018-12-15T01:10:09.861Z,2.4
2018-12-15T01:11:11.247Z,2.4
2018-12-15T01:12:12.714Z,2.5
2018-12-15T01:13:14.111Z,2.4
2018-12-15T01:14:15.505Z,2.4
2018-12-15T01:15:17.036Z,2.5
2018-12-15T01:16:18.429Z,2.4
2018-12-15T01:17:20.686Z,2.5
2018-12-15T01:18:21.309Z,2.4
2018-12-15T01:19:22.800Z,2.4
2018-12-15T01:20:24.189Z,2.4
2018-12-15T01:21:25.578Z,2.4
2018-12-15T01:22:27.127Z,2.4
2018-12-15T01:23:28.523Z,2.4
2018-12-15T01:24:30.016Z,2.3
2018-12-15T01:25:31.414Z,2.3
2018-12-15T01:26:32.885Z,2.4
2018-12-15T01:27:34.274Z,2.3
2018-12-15T01:28:35.674Z,2.4
2018-12-15T01:29:37.387Z,2.3
2018-12-15T01:30:38.775Z,2.4
2018-12-15T01:31:40.173Z,2.4
2018-12-15T01:32:42.113Z,2.3
2018-12-15T01:33:43.508Z,2.3
2018-12-15T01:34:44.916Z,2.5
2018-12-15T01:35:46.461Z,2.4
2018-12-15T01:36:47.856Z,2.4
2018-12-15T01:37:49.246Z,2.3
2018-12-15T01:38:50.783Z,2.4
2018-12-15T01:39:52.175Z,2.5
2018-12-15T01:40:53.665Z,2.3
2018-12-15T01:41:55.068Z,2.3
2018-12-15T01:42:56.460Z,2.4
2018-12-15T01:43:57.989Z,2.4
2018-12-15T01:44:59.384Z,2.4
2018-12-15T01:46:00.778Z,2.4
2018-12-15T01:47:02.174Z,2.4
2018-12-15T01:48:03.573Z,2.4
2018-12-15T01:49:05.190Z,2.4
2018-12-15T01:50:06.578Z,2.4
2018-12-15T01:51:08.068Z,2.4
2018-12-15T01:52:09.461Z,2.4
2018-12-15T01:53:10.950Z,2.4
2018-12-15T01:54:12.342Z,2.4
2018-12-15T01:55:13.832Z,2.4
2018-12-15T01:56:15.223Z,2.4
2018-12-15T01:57:17.105Z,2.4
2018-12-15T01:58:18.498Z,2.4
2018-12-15T01:59:20.103Z,2.4
2018-12-15T02:00:21.496Z,2.3
2018-12-15T02:01:23.195Z,2.3
2018-12-15T02:02:24.585Z,2.3
2018-12-15T02:03:25.991Z,2.4
2018-12-15T02:04:27.516Z,2.3
2018-12-15T02:05:28.914Z,2.3
2018-12-15T02:06:30.309Z,2.4
2018-12-15T02:07:31.831Z,2.4
2018-12-15T02:08:33.227Z,2.4
2018-12-15T02:09:34.624Z,2.4
2018-12-15T02:10:36.152Z,2.4
2018-12-15T02:11:37.544Z,2.3
2018-12-15T02:12:38.935Z,2.5
2018-12-15T02:13:40.474Z,2.4
2018-12-15T02:14:41.866Z,2.4
2018-12-15T02:15:43.263Z,2.4
2018-12-15T02:16:44.793Z,2.4
2018-12-15T02:17:46.190Z,2.4
2018-12-15T02:18:48.025Z,2.4
2018-12-15T02:19:49.730Z,2.4
2018-12-15T02:20:51.132Z,2.4
2018-12-15T02:21:52.534Z,2.4
2018-12-15T02:22:53.953Z,2.3
2018-12-15T02:23:55.492Z,2.4
2018-12-15T02:24:56.886Z,2.4
2018-12-15T02:25:58.578Z,2.4
2018-12-15T02:27:00.018Z,2.4
2018-12-15T02:28:01.665Z,2.4
2018-12-15T02:29:03.058Z,2.4
2018-12-15T02:30:04.450Z,2.4
2018-12-15T02:31:05.983Z,2.4
2018-12-15T02:32:07.422Z,2.3
2018-12-15T02:33:08.817Z,2.4
2018-12-15T02:34:10.510Z,2.4
2018-12-15T02:35:11.925Z,2.4
2018-12-15T02:36:13.319Z,2.4
2018-12-15T02:37:15.043Z,2.4
2018-12-15T02:38:16.432Z,2.4
2018-12-15T02:39:17.899Z,2.4
2018-12-15T02:40:19.563Z,2.4
2018-12-15T02:41:20.956Z,2.4
2018-12-15T02:42:22.363Z,2.3
2018-12-15T02:43:23.899Z,2.4
2018-12-15T02:44:25.290Z,2.4
2018-12-15T02:45:26.686Z,2.4
2018-12-15T02:46:28.208Z,2.4
2018-12-15T02:47:29.595Z,2.4
2018-12-15T02:48:30.987Z,2.3
2018-12-15T02:49:32.529Z,2.4
2018-12-15T02:50:33.923Z,2.3
2018-12-15T02:51:35.383Z,2.3
2018-12-15T02:52:37.055Z,2.3
2018-12-15T02:53:38.451Z,2.4
2018-12-15T02:54:39.838Z,2.3
2018-12-15T02:55:41.376Z,2.3
2018-12-15T02:56:42.769Z,2.3
2018-12-15T02:57:44.461Z,2.4
2018-12-15T02:58:45.857Z,2.4
2018-12-15T02:59:47.259Z,2.3
2018-12-15T03:00:48.781Z,2.3
2018-12-15T03:01:50.172Z,2.4
2018-12-15T03:02:51.562Z,2.4
2018-12-15T03:03:53.103Z,2.3
2018-12-15T03:04:54.510Z,2.3
2018-12-15T03:05:56.189Z,2.3
2018-12-15T03:06:57.582Z,2.3
2018-12-15T03:07:59.379Z,2.3
2018-12-15T03:09:00.764Z,2.2
2018-12-15T03:10:02.195Z,2.3
2018-12-15T03:11:03.801Z,2.3
2018-12-15T03:12:05.195Z,2.2
2018-12-15T03:13:06.587Z,2.2
2018-12-15T03:14:07.986Z,2.2
2018-12-15T03:15:09.586Z,2.2
2018-12-15T03:16:11.015Z,2.3
2018-12-15T03:17:12.431Z,2.3
2018-12-15T03:18:14.122Z,2.3
2018-12-15T03:19:15.513Z,2.3
2018-12-15T03:20:16.905Z,2.3
2018-12-15T03:21:18.623Z,2.3
2018-12-15T03:22:20.024Z,2.3
2018-12-15T03:23:21.995Z,2.2
2018-12-15T03:24:23.382Z,2.3
2018-12-15T03:25:24.784Z,2.3
2018-12-15T03:26:26.810Z,2.3
2018-12-15T03:27:28.197Z,2.3
2018-12-15T03:28:29.599Z,2.3
2018-12-15T03:29:31.160Z,2.3
2018-12-15T03:30:32.591Z,2.3
2018-12-15T03:31:34.465Z,2.3
2018-12-15T03:32:35.627Z,2.3
2018-12-15T03:33:37.359Z,2.3
2018-12-15T03:34:38.748Z,2.3
2018-12-15T03:35:40.711Z,2.3
2018-12-15T03:36:42.105Z,2.3
2018-12-15T03:37:43.709Z,2.3
2018-12-15T03:38:45.099Z,2.3
2018-12-15T03:39:46.490Z,2.3
2018-12-15T03:40:48.034Z,2.3
2018-12-15T03:41:49.428Z,2.2
2018-12-15T03:42:50.914Z,2.2
2018-12-15T03:43:52.557Z,2.2
2018-12-15T03:44:53.948Z,2.3
2018-12-15T03:45:55.338Z,2.2
2018-12-15T03:46:56.881Z,2.3
2018-12-15T03:47:58.287Z,2.2
2018-12-15T03:48:59.964Z,2.3
2018-12-15T03:50:01.361Z,2.3
2018-12-15T03:51:03.066Z,2.2
2018-12-15T03:52:04.457Z,2.2
2018-12-15T03:53:05.853Z,2.2
2018-12-15T03:54:07.382Z,2.2
2018-12-15T03:55:08.796Z,2.3
2018-12-15T03:56:10.189Z,2.2
2018-12-15T03:57:11.899Z,2.2
2018-12-15T03:58:13.297Z,2.3
2018-12-15T03:59:14.703Z,2.2
2018-12-15T04:00:16.220Z,2.2
2018-12-15T04:01:17.615Z,2.3
2018-12-15T04:02:19.319Z,2.2
2018-12-15T04:03:20.709Z,2.3
2018-12-15T04:04:22.449Z,2.2
2018-12-15T04:05:23.850Z,2.2
2018-12-15T04:06:25.480Z,2.3
2018-12-15T04:07:26.867Z,2.3
2018-12-15T04:08:28.312Z,2.2
2018-12-15T04:09:30.432Z,2.2
2018-12-15T04:10:32.181Z,2.2
2018-12-15T04:11:33.575Z,2.2
2018-12-15T04:12:35.151Z,2.2
2018-12-15T04:13:36.540Z,2.1
2018-12-15T04:14:37.930Z,2.1
2018-12-15T04:15:39.471Z,2.1
2018-12-15T04:16:41.240Z,2.1
2018-12-15T04:17:42.770Z,2.2
2018-12-15T04:18:44.167Z,2.1
2018-12-15T04:19:45.847Z,2.2
2018-12-15T04:20:47.237Z,2.2
2018-12-15T04:21:48.933Z,2.2
2018-12-15T04:22:50.339Z,2.2
2018-12-15T04:23:52.016Z,2.2
2018-12-15T04:24:53.410Z,2.2
2018-12-15T04:25:54.816Z,2.1
2018-12-15T04:26:56.336Z,2.2
2018-12-15T04:27:57.730Z,2.1
2018-12-15T04:28:59.124Z,2.1
2018-12-15T04:30:00.721Z,2.1
2018-12-15T04:31:02.117Z,2.2
2018-12-15T04:32:03.513Z,2.2
2018-12-15T04:33:05.189Z,2.2
2018-12-15T04:34:06.602Z,2.2
2018-12-15T04:35:07.973Z,2.2
2018-12-15T04:36:09.511Z,2.1
2018-12-15T04:37:10.904Z,2.1
2018-12-15T04:38:12.596Z,2.1
2018-12-15T04:39:14.014Z,2.2
2018-12-15T04:40:15.679Z,2.2
2018-12-15T04:41:17.109Z,2.2
2018-12-15T04:42:18.781Z,2.2
2018-12-15T04:43:20.166Z,2.2
2018-12-15T04:44:21.853Z,2.2
2018-12-15T04:45:23.248Z,2.1
2018-12-15T04:46:24.963Z,2.2
2018-12-15T04:47:26.349Z,2.1
2018-12-15T04:48:27.750Z,2.1
2018-12-15T04:49:29.256Z,2.2
2018-12-15T04:50:30.635Z,2.2
2018-12-15T04:51:32.037Z,2.1
2018-12-15T04:52:33.589Z,2.1
2018-12-15T04:53:34.968Z,2.1
2018-12-15T04:54:36.360Z,2.1
2018-12-15T04:55:37.897Z,2.1
2018-12-15T04:56:39.289Z,2.1
2018-12-15T04:57:40.987Z,2.2
2018-12-15T04:58:42.375Z,2.1
2018-12-15T04:59:44.073Z,2.1
2018-12-15T05:00:45.457Z,2.1
2018-12-15T05:01:47.266Z,2.1
2018-12-15T05:02:48.803Z,2.1
2018-12-15T05:03:50.187Z,2.1
2018-12-15T05:04:51.579Z,2.1
2018-12-15T05:05:53.122Z,2.1
2018-12-15T05:06:54.512Z,2.1
2018-12-15T05:07:55.908Z,2.0
2018-12-15T05:08:57.447Z,2.0
2018-12-15T05:09:58.836Z,2.0
2018-12-15T05:11:00.531Z,2.1
2018-12-15T05:12:01.913Z,2.1
2018-12-15T05:13:03.616Z,2.1
2018-12-15T05:14:05.002Z,2.0
2018-12-15T05:15:06.705Z,2.1
2018-12-15T05:16:08.097Z,2.1
2018-12-15T05:17:09.785Z,2.1
2018-12-15T05:18:17.928Z,2.1
2018-12-15T05:19:12.660Z,2.1
2018-12-15T05:20:14.053Z,2.1
2018-12-15T05:21:15.832Z,2.1
2018-12-15T05:22:17.218Z,2.1
2018-12-15T05:23:18.830Z,2.1
2018-12-15T05:24:20.226Z,2.0
2018-12-15T05:25:21.667Z,2.1
2018-12-15T05:26:23.153Z,2.1
2018-12-15T05:27:24.546Z,2.0
2018-12-15T05:28:25.942Z,2.1
2018-12-15T05:29:27.868Z,2.0
2018-12-15T05:30:29.260Z,2.1
2018-12-15T05:31:30.649Z,2.0
2018-12-15T05:32:32.205Z,2.0
2018-12-15T05:33:33.601Z,2.0
2018-12-15T05:34:35.291Z,2.0
2018-12-15T05:35:36.711Z,2.1
2018-12-15T05:36:38.181Z,2.0
2018-12-15T05:37:39.571Z,2.1
2018-12-15T05:38:41.258Z,2.0
2018-12-15T05:39:42.652Z,2.0
2018-12-15T05:40:44.346Z,2.0
2018-12-15T05:41:45.739Z,2.0
2018-12-15T05:42:47.434Z,2.1
2018-12-15T05:43:48.824Z,2.1
2018-12-15T05:44:50.904Z,2.1
2018-12-15T05:45:53.082Z,2.0
2018-12-15T05:46:54.625Z,2.1
2018-12-15T05:47:56.017Z,2.1
2018-12-15T05:48:57.713Z,2.1
2018-12-15T05:49:59.105Z,2.0
2018-12-15T05:51:01.183Z,2.1
2018-12-15T05:52:02.576Z,2.0
2018-12-15T05:53:04.089Z,2.1
2018-12-15T05:54:05.478Z,2.1
2018-12-15T05:55:07.182Z,2.1
2018-12-15T05:56:08.568Z,2.1
2018-12-15T05:57:10.261Z,2.1
2018-12-15T05:58:11.656Z,2.0
2018-12-15T05:59:13.346Z,2.1
2018-12-15T06:00:14.739Z,2.0
2018-12-15T06:01:16.433Z,2.1
2018-12-15T06:02:17.823Z,2.1
2018-12-15T06:03:19.516Z,2.1
2018-12-15T06:04:20.907Z,2.1
2018-12-15T06:05:22.610Z,2.1
2018-12-15T06:06:24.003Z,2.1
2018-12-15T06:07:25.398Z,2.0
2018-12-15T06:08:26.925Z,1.9
2018-12-15T06:09:28.318Z,2.0
2018-12-15T06:10:29.749Z,2.0
2018-12-15T06:11:31.534Z,2.0
2018-12-15T06:12:33.104Z,2.1
2018-12-15T06:13:34.498Z,2.0
2018-12-15T06:14:35.894Z,2.0
2018-12-15T06:15:37.417Z,2.1
2018-12-15T06:16:39.217Z,2.1
2018-12-15T06:17:40.611Z,2.0
2018-12-15T06:18:42.150Z,2.0
2018-12-15T06:19:43.553Z,2.0
2018-12-15T06:20:44.947Z,2.0
2018-12-15T06:21:46.478Z,2.0
2018-12-15T06:22:47.825Z,2.1
2018-12-15T06:23:49.222Z,2.1
2018-12-15T06:24:50.617Z,2.0
2018-12-15T06:25:52.232Z,2.0
2018-12-15T06:26:53.626Z,2.0
2018-12-15T06:27:55.024Z,2.0
2018-12-15T06:28:56.558Z,2.0
2018-12-15T06:29:57.952Z,2.0
2018-12-15T06:30:59.348Z,2.0
2018-12-15T06:32:00.896Z,2.0
2018-12-15T06:33:02.283Z,2.0
2018-12-15T06:34:03.681Z,2.0
2018-12-15T06:35:05.197Z,2.0
2018-12-15T06:36:06.588Z,2.0
2018-12-15T06:37:07.982Z,2.0
2018-12-15T06:38:09.522Z,2.1
2018-12-15T06:39:10.908Z,2.1
2018-12-15T06:40:12.609Z,2.1
2018-12-15T06:41:13.992Z,2.1
2018-12-15T06:42:15.392Z,2.1
2018-12-15T06:43:16.923Z,2.0
2018-12-15T06:44:18.315Z,2.1
2018-12-15T06:45:19.724Z,2.0
2018-12-15T06:46:21.258Z,2.1
2018-12-15T06:47:22.643Z,2.1
2018-12-15T06:48:25.126Z,2.1
2018-12-15T06:49:26.892Z,2.1
2018-12-15T06:50:28.286Z,2.1
2018-12-15T06:51:29.899Z,2.1
2018-12-15T06:52:31.306Z,2.1
2018-12-15T06:53:32.965Z,2.1
2018-12-15T06:54:34.356Z,2.1
2018-12-15T06:55:36.051Z,2.2
2018-12-15T06:56:37.447Z,2.2
2018-12-15T06:57:39.132Z,2.1
2018-12-15T06:58:40.528Z,2.2
2018-12-15T06:59:42.224Z,2.1
2018-12-15T07:00:43.620Z,2.1
2018-12-15T07:01:45.307Z,2.2
2018-12-15T07:02:47.079Z,2.2
2018-12-15T07:03:48.495Z,2.2
2018-12-15T07:04:50.112Z,2.2
2018-12-15T07:05:51.500Z,2.1
2018-12-15T07:06:52.895Z,2.2
2018-12-15T07:07:55.004Z,2.2
2018-12-15T07:08:56.375Z,2.2
2018-12-15T07:09:58.064Z,2.1
2018-12-15T07:10:59.464Z,2.2
2018-12-15T07:12:01.151Z,2.1
2018-12-15T07:13:02.542Z,2.1
2018-12-15T07:14:03.932Z,2.2
2018-12-15T07:15:05.847Z,2.2
2018-12-15T07:16:07.239Z,2.2
2018-12-15T07:17:08.737Z,2.1
2018-12-15T07:18:10.447Z,2.2
2018-12-15T07:19:11.844Z,2.1
2018-12-15T07:20:13.235Z,2.2
2018-12-15T07:21:14.725Z,2.2
2018-12-15T07:22:16.119Z,2.2
2018-12-15T07:23:17.510Z,2.3
2018-12-15T07:24:18.904Z,2.2
2018-12-15T07:25:20.525Z,2.2
2018-12-15T07:26:21.919Z,2.3
2018-12-15T07:27:23.311Z,2.3
2018-12-15T07:28:24.808Z,2.2
2018-12-15T07:29:26.202Z,2.2
2018-12-15T07:30:27.917Z,2.2
2018-12-15T07:31:29.306Z,2.1
2018-12-15T07:32:30.980Z,2.3
2018-12-15T07:33:32.378Z,2.2
2018-12-15T07:34:34.065Z,2.3
2018-12-15T07:35:35.462Z,2.2
2018-12-15T07:36:36.947Z,2.3
2018-12-15T07:37:38.343Z,2.3
2018-12-15T07:38:39.744Z,2.3
2018-12-15T07:39:41.269Z,2.3
2018-12-15T07:40:42.663Z,2.3
2018-12-15T07:41:44.047Z,2.3
2018-12-15T07:42:45.646Z,2.3
2018-12-15T07:43:47.046Z,2.3
2018-12-15T07:44:48.429Z,2.2
2018-12-15T07:45:50.118Z,2.3
2018-12-15T07:46:51.513Z,2.3
2018-12-15T07:47:52.913Z,2.2
2018-12-15T07:48:54.437Z,2.2
2018-12-15T07:49:55.834Z,2.2
2018-12-15T07:50:57.229Z,2.2
2018-12-15T07:51:58.763Z,2.3
2018-12-15T07:53:00.156Z,2.3
2018-12-15T07:54:01.553Z,2.2
2018-12-15T07:55:03.079Z,2.3
2018-12-15T07:56:04.505Z,2.3
2018-12-15T07:57:06.166Z,2.3
2018-12-15T07:58:07.558Z,2.3
2018-12-15T07:59:08.964Z,2.3
2018-12-15T08:00:10.487Z,2.3
2018-12-15T08:01:11.884Z,2.3
2018-12-15T08:02:13.279Z,2.3
2018-12-15T08:03:14.808Z,2.3
2018-12-15T08:04:16.206Z,2.3
2018-12-15T08:05:17.599Z,2.3
2018-12-15T08:06:18.993Z,2.4
2018-12-15T08:07:20.571Z,2.3
2018-12-15T08:08:21.968Z,2.4
2018-12-15T08:09:23.365Z,2.3
2018-12-15T08:10:24.892Z,2.4
2018-12-15T08:11:26.288Z,2.4
2018-12-15T08:12:27.977Z,2.4
2018-12-15T08:13:29.374Z,2.4
2018-12-15T08:14:31.063Z,2.4
2018-12-15T08:15:32.461Z,2.4
2018-12-15T08:16:34.148Z,2.4
2018-12-15T08:17:35.543Z,2.4
2018-12-15T08:18:36.935Z,2.4
2018-12-15T08:19:38.471Z,2.3
2018-12-15T08:20:39.866Z,2.4
2018-12-15T08:21:41.263Z,2.4
2018-12-15T08:22:42.793Z,2.4
2018-12-15T08:23:44.194Z,2.4
2018-12-15T08:24:45.879Z,2.4
2018-12-15T08:25:47.275Z,2.4
2018-12-15T08:26:48.966Z,2.4
2018-12-15T08:27:50.359Z,2.4
2018-12-15T08:28:51.760Z,2.4
2018-12-15T08:29:53.286Z,2.4
2018-12-15T08:30:54.681Z,2.4
2018-12-15T08:31:56.077Z,2.4
2018-12-15T08:32:57.992Z,2.5
2018-12-15T08:33:59.382Z,2.5
2018-12-15T08:35:00.778Z,2.5
2018-12-15T08:36:02.337Z,2.5
2018-12-15T08:37:03.737Z,2.5
2018-12-15T08:38:05.136Z,2.6
2018-12-15T08:39:06.660Z,2.5
2018-12-15T08:40:08.053Z,2.5
2018-12-15T08:41:09.450Z,2.5
2018-12-15T08:42:10.981Z,2.6
2018-12-15T08:43:12.378Z,2.5
2018-12-15T08:44:13.773Z,2.5
2018-12-15T08:45:15.304Z,2.5
2018-12-15T08:46:16.697Z,2.5
2018-12-15T08:47:18.096Z,2.5
2018-12-15T08:48:19.628Z,2.5
2018-12-15T08:49:21.023Z,2.5
2018-12-15T08:50:22.717Z,2.6
2018-12-15T08:51:24.167Z,2.6
2018-12-15T08:52:25.574Z,2.6
2018-12-15T08:53:27.621Z,2.6
2018-12-15T08:54:29.017Z,2.6
2018-12-15T08:55:30.410Z,2.6
2018-12-15T08:56:31.968Z,2.6
2018-12-15T08:57:33.364Z,2.6
2018-12-15T08:58:34.765Z,2.7
2018-12-15T08:59:36.288Z,2.6
2018-12-15T09:00:37.683Z,2.7
2018-12-15T09:01:39.930Z,2.7
2018-12-15T09:02:41.812Z,2.8
2018-12-15T09:03:43.234Z,2.8
2018-12-15T09:04:44.634Z,2.7
2018-12-15T09:05:46.170Z,2.7
2018-12-15T09:06:47.565Z,2.7
2018-12-15T09:07:49.248Z,2.8
2018-12-15T09:08:50.652Z,2.8
2018-12-15T09:09:52.331Z,2.8
2018-12-15T09:10:53.743Z,2.8
2018-12-15T09:11:55.437Z,2.8
2018-12-15T09:12:56.840Z,2.8
2018-12-15T09:13:58.508Z,2.8
2018-12-15T09:14:59.902Z,2.7
2018-12-15T09:16:01.604Z,2.8
2018-12-15T09:17:03.026Z,2.8
2018-12-15T09:18:04.674Z,2.9
2018-12-15T09:19:10.982Z,2.9
2018-12-15T09:20:07.418Z,2.9
2018-12-15T09:21:08.991Z,2.8
2018-12-15T09:22:11.544Z,2.9
2018-12-15T09:23:12.123Z,2.9
2018-12-15T09:24:13.727Z,2.9
2018-12-15T09:25:15.122Z,2.9
2018-12-15T09:26:17.005Z,2.9
2018-12-15T09:27:18.398Z,2.9
2018-12-15T09:28:19.894Z,2.9
2018-12-15T09:29:21.290Z,3.0
2018-12-15T09:30:22.689Z,3.0
2018-12-15T09:31:24.219Z,3.0
2018-12-15T09:32:25.611Z,3.0
2018-12-15T09:33:27.033Z,2.9
2018-12-15T09:34:28.540Z,3.0
2018-12-15T09:35:29.938Z,3.0
2018-12-15T09:36:31.334Z,2.9
2018-12-15T09:37:32.872Z,3.0
2018-12-15T09:38:34.261Z,3.1
2018-12-15T09:39:35.655Z,3.0
2018-12-15T09:40:37.181Z,3.0
2018-12-15T09:41:38.576Z,3.0
2018-12-15T09:42:40.359Z,3.0
2018-12-15T09:43:41.911Z,3.0
2018-12-15T09:44:43.304Z,3.0
2018-12-15T09:45:44.699Z,3.1
2018-12-15T09:46:46.618Z,3.0
2018-12-15T09:47:48.005Z,3.1
2018-12-15T09:48:49.525Z,2.9
2018-12-15T09:49:50.918Z,3.0
2018-12-15T09:50:52.312Z,3.0
2018-12-15T09:51:53.844Z,3.0
2018-12-15T09:52:55.239Z,3.1
2018-12-15T09:53:56.632Z,3.1
2018-12-15T09:54:58.163Z,3.2
2018-12-15T09:55:59.562Z,3.1
2018-12-15T09:57:00.955Z,3.1
2018-12-15T09:58:02.485Z,3.1
2018-12-15T09:59:03.877Z,3.1
2018-12-15T10:00:05.271Z,3.1
2018-12-15T10:01:06.807Z,3.1
2018-12-15T10:02:08.582Z,3.1
2018-12-15T10:03:09.988Z,3.2
2018-12-15T10:04:11.544Z,3.1
2018-12-15T10:05:12.932Z,3.2
2018-12-15T10:06:14.424Z,3.1
2018-12-15T10:07:15.812Z,3.2
2018-12-15T10:08:17.301Z,3.1
2018-12-15T10:09:18.694Z,3.1
2018-12-15T10:10:20.387Z,3.2
2018-12-15T10:11:21.811Z,3.2
2018-12-15T10:12:23.855Z,3.1
2018-12-15T10:13:25.265Z,3.2
2018-12-15T10:14:26.763Z,3.1
2018-12-15T10:15:28.212Z,3.2
2018-12-15T10:16:30.244Z,3.2
2018-12-15T10:17:31.631Z,3.2
2018-12-15T10:18:33.137Z,3.3
2018-12-15T10:19:34.533Z,3.2
2018-12-15T10:20:35.927Z,3.2
2018-12-15T10:21:37.459Z,3.2
2018-12-15T10:22:38.853Z,3.2
2018-12-15T10:23:40.248Z,3.2
2018-12-15T10:24:41.782Z,3.2
2018-12-15T10:25:43.177Z,3.2
2018-12-15T10:26:44.663Z,3.2
2018-12-15T10:27:46.452Z,3.2
2018-12-15T10:28:47.952Z,3.2
2018-12-15T10:29:49.357Z,3.3
2018-12-15T10:30:50.837Z,3.2
2018-12-15T10:31:52.616Z,3.1
2018-12-15T10:32:54.127Z,3.3
2018-12-15T10:33:55.801Z,3.2
2018-12-15T10:34:57.416Z,3.2
2018-12-15T10:35:58.810Z,3.3
2018-12-15T10:37:00.301Z,3.3
2018-12-15T10:38:01.714Z,3.2
2018-12-15T10:39:03.383Z,3.3
2018-12-15T10:40:04.781Z,3.3
2018-12-15T10:41:06.263Z,3.3
2018-12-15T10:42:07.672Z,3.3
2018-12-15T10:43:09.351Z,3.3
2018-12-15T10:44:10.748Z,3.3
2018-12-15T10:45:12.434Z,3.3
2018-12-15T10:46:13.831Z,3.3
2018-12-15T10:47:15.521Z,3.3
2018-12-15T10:48:16.916Z,3.4
2018-12-15T10:49:18.320Z,3.4
2018-12-15T10:50:19.840Z,3.3
2018-12-15T10:51:21.266Z,3.4
2018-12-15T10:52:23.303Z,3.3
2018-12-15T10:53:24.698Z,3.3
2018-12-15T10:54:26.218Z,3.4
2018-12-15T10:55:27.631Z,3.4
2018-12-15T10:56:29.304Z,3.3
2018-12-15T10:57:30.695Z,3.4
2018-12-15T10:58:32.396Z,3.4
2018-12-15T10:59:33.796Z,3.4
2018-12-15T11:00:35.190Z,3.5
2018-12-15T11:01:36.707Z,3.5
2018-12-15T11:02:38.117Z,3.4
2018-12-15T11:03:39.499Z,3.5
2018-12-15T11:04:41.031Z,3.5
2018-12-15T11:05:42.801Z,3.5
2018-12-15T11:06:44.193Z,3.5
2018-12-15T11:07:48.613Z,3.5
2018-12-15T11:08:50.464Z,3.5
2018-12-15T11:09:51.899Z,3.4
2018-12-15T11:10:53.360Z,3.4
2018-12-15T11:11:54.712Z,3.5
2018-12-15T11:12:56.112Z,3.5
2018-12-15T11:13:57.683Z,3.5
2018-12-15T11:14:59.198Z,3.5
2018-12-15T11:16:00.767Z,3.4
2018-12-15T11:17:02.161Z,3.4
2018-12-15T11:18:03.887Z,3.5
2018-12-15T11:19:05.396Z,3.5
2018-12-15T11:20:06.939Z,3.5
2018-12-15T11:21:08.331Z,3.5
2018-12-15T11:22:09.770Z,3.5
2018-12-15T11:23:11.653Z,3.5
2018-12-15T11:24:13.050Z,3.4
2018-12-15T11:25:14.444Z,3.5
2018-12-15T11:26:15.995Z,3.4
2018-12-15T11:27:17.388Z,3.5
2018-12-15T11:28:18.871Z,3.5
2018-12-15T11:29:20.271Z,3.4
2018-12-15T11:30:23.024Z,3.4
2018-12-15T11:31:24.420Z,3.5
2018-12-15T11:32:25.820Z,3.4
2018-12-15T11:33:27.303Z,3.5
2018-12-15T11:34:28.697Z,3.5
2018-12-15T11:35:30.092Z,3.5
2018-12-15T11:36:31.675Z,3.4
2018-12-15T11:37:33.048Z,3.5
2018-12-15T11:38:34.436Z,3.6
2018-12-15T11:39:35.946Z,3.5
2018-12-15T11:40:37.340Z,3.4
2018-12-15T11:41:38.736Z,3.5
2018-12-15T11:42:40.319Z,3.6
2018-12-15T11:43:41.723Z,3.5
2018-12-15T11:44:43.122Z,3.5
2018-12-15T11:45:44.795Z,3.5
2018-12-15T11:46:46.191Z,3.5
2018-12-15T11:47:47.580Z,3.5
2018-12-15T11:48:49.123Z,3.5
2018-12-15T11:49:50.510Z,3.5
2018-12-15T11:50:51.941Z,3.5
2018-12-15T11:51:53.442Z,3.5
2018-12-15T11:52:54.836Z,3.5
2018-12-15T11:53:56.229Z,3.6
2018-12-15T11:54:57.783Z,3.5
2018-12-15T11:55:59.178Z,3.4
2018-12-15T11:57:00.814Z,3.6
2018-12-15T11:58:02.338Z,3.5
2018-12-15T11:59:03.753Z,3.5
2018-12-15T12:00:05.176Z,3.6
2018-12-15T12:01:06.808Z,3.5
2018-12-15T12:02:08.207Z,3.6
2018-12-15T12:03:09.689Z,3.5
2018-12-15T12:04:11.089Z,3.5
2018-12-15T12:05:12.640Z,3.5
2018-12-15T12:06:13.966Z,3.5
2018-12-15T12:07:15.356Z,3.5
2018-12-15T12:08:16.929Z,3.5
2018-12-15T12:09:18.339Z,3.5
2018-12-15T12:10:19.736Z,3.5
2018-12-15T12:11:21.147Z,3.6
2018-12-15T12:12:22.752Z,3.6
2018-12-15T12:13:24.153Z,3.6
2018-12-15T12:14:26.128Z,3.6
2018-12-15T12:15:27.531Z,3.6
2018-12-15T12:16:28.929Z,3.7
2018-12-15T12:17:30.711Z,3.6
2018-12-15T12:18:32.125Z,3.6
2018-12-15T12:19:33.877Z,3.7
2018-12-15T12:20:35.279Z,3.6
2018-12-15T12:21:36.674Z,3.7
2018-12-15T12:22:38.100Z,3.6
2018-12-15T12:23:39.726Z,3.7
2018-12-15T12:24:41.185Z,3.6
2018-12-15T12:25:42.560Z,3.6
2018-12-15T12:26:43.958Z,3.6
2018-12-15T12:27:45.369Z,3.6
2018-12-15T12:28:47.462Z,3.6
2018-12-15T12:29:48.859Z,3.6
2018-12-15T12:30:50.425Z,3.7
2018-12-15T12:31:51.842Z,3.6
2018-12-15T12:32:53.248Z,3.6
2018-12-15T12:33:54.816Z,3.7
2018-12-15T12:34:56.224Z,3.7
2018-12-15T12:35:57.831Z,3.6
2018-12-15T12:36:59.227Z,3.7
2018-12-15T12:38:00.681Z,3.6
2018-12-15T12:39:02.152Z,3.7
2018-12-15T12:40:03.550Z,3.6
2018-12-15T12:41:06.360Z,3.7
2018-12-15T12:42:07.775Z,3.7
2018-12-15T12:43:09.169Z,3.7
2018-12-15T12:44:11.207Z,3.6
2018-12-15T12:45:12.654Z,3.6
2018-12-15T12:46:14.060Z,3.6
2018-12-15T12:47:16.170Z,3.7
2018-12-15T12:48:17.567Z,3.6
2018-12-15T12:49:19.000Z,3.6
2018-12-15T12:50:20.663Z,3.7
2018-12-15T12:51:22.051Z,3.8
2018-12-15T12:52:23.454Z,3.7
2018-12-15T12:53:24.854Z,3.8
2018-12-15T12:54:26.420Z,3.8
2018-12-15T12:55:27.830Z,3.7
2018-12-15T12:56:29.289Z,3.8
2018-12-15T12:57:30.700Z,3.8
2018-12-15T12:58:32.106Z,3.8
2018-12-15T12:59:33.629Z,3.8
2018-12-15T13:00:35.022Z,3.8
2018-12-15T13:01:36.421Z,3.8
2018-12-15T13:02:37.832Z,3.9
2018-12-15T13:03:39.297Z,3.8
2018-12-15T13:04:40.690Z,3.8
2018-12-15T13:05:42.089Z,3.7
2018-12-15T13:06:43.707Z,3.7
2018-12-15T13:07:45.103Z,3.7
2018-12-15T13:08:46.589Z,3.6
2018-12-15T13:09:51.812Z,3.6
2018-12-15T13:10:53.391Z,3.7
2018-12-15T13:11:54.852Z,3.6
2018-12-15T13:12:56.247Z,3.6
2018-12-15T13:13:57.888Z,3.6
2018-12-15T13:14:59.661Z,3.6
2018-12-15T13:16:01.103Z,3.6
2018-12-15T13:17:02.620Z,3.6
2018-12-15T13:18:04.018Z,3.6
2018-12-15T13:19:05.499Z,3.7
2018-12-15T13:20:06.898Z,3.6
2018-12-15T13:21:08.300Z,3.6
2018-12-15T13:22:10.054Z,3.6
2018-12-15T13:23:11.514Z,3.7
2018-12-15T13:24:12.908Z,3.7
2018-12-15T13:25:14.607Z,3.7
2018-12-15T13:26:15.987Z,3.7
2018-12-15T13:27:17.458Z,3.7
2018-12-15T13:28:19.077Z,3.7
2018-12-15T13:29:20.473Z,3.6
2018-12-15T13:30:22.031Z,3.7
2018-12-15T13:31:23.434Z,3.5
2018-12-15T13:32:25.040Z,3.6
2018-12-15T13:33:26.435Z,3.6
2018-12-15T13:34:27.965Z,3.6
2018-12-15T13:35:29.405Z,3.5
2018-12-15T13:36:32.002Z,3.6
2018-12-15T13:37:32.246Z,3.5
2018-12-15T13:38:33.642Z,3.5
2018-12-15T13:39:35.040Z,3.5
2018-12-15T13:40:36.567Z,3.5
2018-12-15T13:41:38.000Z,3.4
2018-12-15T13:42:39.412Z,3.5
2018-12-15T13:43:40.904Z,3.5
2018-12-15T13:44:42.301Z,3.5
2018-12-15T13:45:44.147Z,3.5
2018-12-15T13:46:45.544Z,3.4
2018-12-15T13:47:46.934Z,3.5
2018-12-15T13:48:48.500Z,3.5
2018-12-15T13:49:49.907Z,3.4
2018-12-15T13:50:51.323Z,3.4
2018-12-15T13:51:52.740Z,3.4
2018-12-15T13:52:54.264Z,3.4
2018-12-15T13:53:55.658Z,3.4
2018-12-15T13:54:57.052Z,3.4
2018-12-15T13:55:59.051Z,3.3
2018-12-15T13:57:00.462Z,3.4
2018-12-15T13:58:01.869Z,3.4
2018-12-15T13:59:03.667Z,3.4
2018-12-15T14:00:05.062Z,3.4
2018-12-15T14:01:06.618Z,3.3
2018-12-15T14:02:08.031Z,3.3
2018-12-15T14:03:09.443Z,3.3
2018-12-15T14:04:11.010Z,3.3
2018-12-15T14:05:12.452Z,3.3
2018-12-15T14:06:13.865Z,3.2
2018-12-15T14:07:15.460Z,3.3